Time;durP1;ratioP1;P1;durP2;ratioP2;P2;SDS_P1;SDS_P2;PMS_P1;PMS_P2;Temp;Humidity;BMP_temperature;BMP_pressure;BME280_temperature;BME280_humidity;BME280_pressure;Samples;Min_cycle;Max_cycle;Signal;HPM_P1;HPM_P2
2023/06/30 00:01:30;;;;;;;7.37;3.67;;;17.70;68.90;;;;;;5096836;28;20182;-83
2023/06/30 00:03:59;;;;;;;7.37;3.20;;;17.60;72.00;;;;;;5098850;28;20165;-82
2023/06/30 00:07:12;;;;;;;6.50;3.60;;;17.70;71.30;;;;;;5098134;28;20197;-82
2023/06/30 00:09:38;;;;;;;7.57;3.13;;;17.60;76.80;;;;;;5097537;28;20261;-84
2023/06/30 00:12:04;;;;;;;5.13;2.70;;;17.60;69.40;;;;;;5097058;28;20173;-83
2023/06/30 00:14:30;;;;;;;7.07;3.17;;;17.60;71.10;;;;;;5097442;28;20184;-83
2023/06/30 00:16:56;;;;;;;7.67;3.00;;;17.50;72.00;;;;;;5097662;28;20165;-83
2023/06/30 00:19:23;;;;;;;5.77;2.90;;;17.60;67.10;;;;;;5097770;28;20209;-83
2023/06/30 00:21:52;;;;;;;6.97;2.70;;;17.70;62.90;;;;;;5097946;28;20157;-83
2023/06/30 00:24:18;;;;;;;6.63;3.17;;;17.80;55.90;;;;;;5077060;28;20203;-84
2023/06/30 00:26:44;;;;;;;7.47;3.10;;;17.70;52.10;;;;;;5072355;28;20180;-83
2023/06/30 00:29:10;;;;;;;7.70;3.10;;;17.80;43.50;;;;;;5072222;28;20685;-82
2023/06/30 00:31:36;;;;;;;6.93;2.77;;;17.80;40.90;;;;;;5072691;28;20182;-83
2023/06/30 00:34:02;;;;;;;8.83;3.07;;;17.70;37.80;;;;;;5072282;28;20244;-84
2023/06/30 00:36:29;;;;;;;6.63;2.57;;;17.90;31.50;;;;;;5072510;28;20234;-84
2023/06/30 00:38:55;;;;;;;5.70;2.70;;;17.70;33.70;;;;;;5087025;28;20172;-84
2023/06/30 00:41:23;;;;;;;5.97;2.67;;;17.70;34.00;;;;;;5094871;28;20216;-81
2023/06/30 00:43:49;;;;;;;8.53;2.80;;;17.70;31.00;;;;;;5095989;28;20153;-83
2023/06/30 00:46:16;;;;;;;7.10;2.80;;;17.80;28.70;;;;;;5095045;28;20227;-83
2023/06/30 00:48:42;;;;;;;9.07;2.80;;;17.90;25.10;;;;;;5090252;28;20194;-82
2023/06/30 00:51:09;;;;;;;6.17;2.80;;;18.00;20.80;;;;;;5096771;28;20193;-84
2023/06/30 00:53:35;;;;;;;6.27;2.60;;;18.00;19.70;;;;;;5097180;28;20204;-82
2023/06/30 00:56:01;;;;;;;7.90;2.70;;;18.00;17.40;;;;;;5097211;28;20225;-83
2023/06/30 00:58:27;;;;;;;9.83;3.20;;;17.90;20.20;;;;;;5096573;28;20182;-82
2023/06/30 01:01:04;;;;;;;7.70;3.00;;;18.00;20.20;;;;;;5096773;28;20265;-82
2023/06/30 01:03:44;;;;;;;8.07;2.90;;;17.90;23.40;;;;;;5097136;28;20156;-82
2023/06/30 01:06:32;;;;;;;6.90;2.63;;;17.80;27.50;;;;;;5096774;28;20163;-82
2023/06/30 01:09:05;;;;;;;4.80;2.90;;;17.80;29.00;;;;;;5096489;28;20195;-82
2023/06/30 01:11:33;;;;;;;8.13;3.13;;;17.60;35.30;;;;;;5097518;28;20160;-84
2023/06/30 01:14:01;;;;;;;7.73;3.17;;;17.50;44.60;;;;;;5096275;28;20169;-84
2023/06/30 01:16:29;;;;;;;7.20;3.33;;;17.40;50.30;;;;;;5096505;28;20232;-82
2023/06/30 01:18:56;;;;;;;7.47;3.70;;;17.40;57.10;;;;;;5096343;28;20203;-83
2023/06/30 01:21:24;;;;;;;6.53;2.90;;;17.50;53.90;;;;;;5096559;28;20169;-81
2023/06/30 01:23:58;;;;;;;7.17;3.30;;;17.50;50.90;;;;;;5096071;28;20179;-82
2023/06/30 01:26:24;;;;;;;10.43;4.03;;;17.60;44.60;;;;;;5096195;28;20215;-82
2023/06/30 01:28:50;;;;;;;9.20;3.53;;;17.50;46.80;;;;;;5095639;28;20176;-81
2023/06/30 01:31:18;;;;;;;6.00;3.00;;;17.50;49.30;;;;;;5095753;28;20169;-83
2023/06/30 01:33:44;;;;;;;8.17;3.13;;;17.50;49.70;;;;;;5096257;28;20176;-83
2023/06/30 01:36:10;;;;;;;6.57;3.50;;;17.60;49.50;;;;;;5096488;28;20161;-82
2023/06/30 01:38:36;;;;;;;9.30;3.80;;;17.60;53.20;;;;;;5095789;28;20164;-83
2023/06/30 01:41:07;;;;;;;7.37;3.23;;;17.60;51.60;;;;;;5096668;28;20169;-84
2023/06/30 01:43:35;;;;;;;9.77;3.00;;;17.50;48.50;;;;;;5095696;28;20156;-83
2023/06/30 01:46:01;;;;;;;8.60;3.17;;;17.50;39.60;;;;;;5096011;28;20169;-81
2023/06/30 01:48:28;;;;;;;6.10;2.67;;;17.20;46.40;;;;;;5096305;28;20238;-81
2023/06/30 01:50:55;;;;;;;7.10;2.90;;;17.10;45.80;;;;;;5096574;28;20173;-82
2023/06/30 01:53:21;;;;;;;6.20;2.67;;;17.00;46.50;;;;;;5095658;28;20283;-81
2023/06/30 01:55:47;;;;;;;8.80;3.23;;;17.10;42.90;;;;;;5097197;28;20160;-82
2023/06/30 01:58:14;;;;;;;7.63;3.13;;;17.00;45.90;;;;;;5099868;28;20166;-80
2023/06/30 02:00:39;;;;;;;7.30;2.60;;;16.90;42.70;;;;;;5099330;28;20196;-82
2023/06/30 02:03:05;;;;;;;11.50;3.67;;;16.80;38.40;;;;;;5096924;28;20211;-84
2023/06/30 02:05:31;;;;;;;9.30;3.13;;;16.80;39.10;;;;;;5098433;28;20160;-83
2023/06/30 02:07:58;;;;;;;8.93;2.77;;;16.60;36.90;;;;;;5099457;28;20175;-84
2023/06/30 02:10:25;;;;;;;9.37;2.90;;;16.60;39.40;;;;;;5098663;28;20191;-84
2023/06/30 02:12:51;;;;;;;8.33;3.07;;;16.70;41.80;;;;;;5099207;28;20177;-82
2023/06/30 02:15:16;;;;;;;6.90;2.57;;;16.80;36.90;;;;;;5097609;28;20170;-84
2023/06/30 02:17:44;;;;;;;5.17;2.70;;;16.80;33.90;;;;;;5099732;28;20172;-82
2023/06/30 02:20:11;;;;;;;8.20;2.60;;;16.90;28.00;;;;;;5099438;28;20247;-84
2023/06/30 02:22:38;;;;;;;9.87;3.13;;;16.80;26.50;;;;;;5099978;28;20163;-83
2023/06/30 02:25:04;;;;;;;6.80;2.50;;;16.80;29.10;;;;;;5098351;28;20241;-82
2023/06/30 02:27:30;;;;;;;8.63;2.93;;;16.70;30.30;;;;;;5099110;28;20164;-83
2023/06/30 02:29:56;;;;;;;6.13;2.67;;;16.70;32.60;;;;;;5098964;28;20161;-82
2023/06/30 02:32:22;;;;;;;7.37;3.00;;;16.70;35.50;;;;;;5099025;28;20166;-83
2023/06/30 02:34:48;;;;;;;7.73;2.80;;;16.70;33.20;;;;;;5098985;28;20171;-84
2023/06/30 02:37:14;;;;;;;7.33;2.80;;;16.70;35.30;;;;;;5099642;28;20203;-82
2023/06/30 02:39:40;;;;;;;9.93;2.80;;;16.80;32.00;;;;;;5098272;28;20298;-81
2023/06/30 02:42:06;;;;;;;6.73;2.77;;;17.00;21.60;;;;;;5098221;28;20156;-82
2023/06/30 02:44:32;;;;;;;8.87;3.20;;;17.00;18.00;;;;;;5080008;28;20176;-83
2023/06/30 02:46:58;;;;;;;7.80;3.13;;;17.10;14.70;;;;;;5097954;28;20185;-82
2023/06/30 02:49:24;;;;;;;6.83;3.23;;;17.00;15.00;;;;;;5098989;28;20187;-82
2023/06/30 02:51:50;;;;;;;9.57;3.17;;;17.00;13.70;;;;;;5096911;28;20200;-82
2023/06/30 02:54:16;;;;;;;6.93;3.10;;;16.90;8.00;;;;;;5099320;28;20168;-81
2023/06/30 02:56:42;;;;;;;8.40;3.30;;;16.90;9.60;;;;;;5099132;28;20176;-82
2023/06/30 02:59:08;;;;;;;9.67;2.80;;;16.90;11.40;;;;;;5099020;28;20207;-81
2023/06/30 03:01:37;;;;;;;10.17;3.77;;;16.80;16.10;;;;;;5098342;28;20190;-83
2023/06/30 03:04:06;;;;;;;6.93;2.87;;;16.80;22.30;;;;;;5098383;28;20230;-82
2023/06/30 03:06:32;;;;;;;9.40;3.27;;;16.90;18.40;;;;;;5097225;28;20248;-83
2023/06/30 03:08:59;;;;;;;8.73;3.50;;;16.90;15.80;;;;;;5079912;28;20248;-82
2023/06/30 03:11:25;;;;;;;10.03;3.53;;;16.60;22.50;;;;;;5096905;28;20183;-83
2023/06/30 03:13:52;;;;;;;7.27;3.63;;;16.70;20.10;;;;;;5095438;28;20174;-82
2023/06/30 03:16:18;;;;;;;8.93;4.00;;;16.70;20.90;;;;;;5097921;28;20190;-83
2023/06/30 03:18:44;;;;;;;7.57;4.30;;;16.80;16.50;;;;;;5099128;28;20176;-80
2023/06/30 03:21:10;;;;;;;11.10;4.97;;;16.90;16.20;;;;;;5098776;28;20187;-81
2023/06/30 03:23:36;;;;;;;10.77;4.83;;;16.80;18.90;;;;;;5098362;28;20196;-82
2023/06/30 03:26:05;;;;;;;13.67;5.30;;;16.70;23.90;;;;;;5096542;28;20169;-82
2023/06/30 03:28:35;;;;;;;8.80;4.93;;;16.60;27.30;;;;;;5096237;28;20175;-83
2023/06/30 03:31:01;;;;;;;9.33;4.70;;;16.50;30.00;;;;;;5096906;28;20167;-81
2023/06/30 03:33:27;;;;;;;10.27;5.43;;;16.50;31.50;;;;;;5096421;28;20170;-82
2023/06/30 03:35:52;;;;;;;13.03;5.73;;;16.50;31.70;;;;;;5095084;28;20182;-82
2023/06/30 03:38:18;;;;;;;12.60;5.63;;;16.50;29.50;;;;;;5094831;28;20183;-81
2023/06/30 03:40:44;;;;;;;11.13;5.63;;;16.50;28.40;;;;;;5097332;28;20230;-82
2023/06/30 03:43:10;;;;;;;12.67;6.07;;;16.60;23.40;;;;;;5097147;28;20160;-83
2023/06/30 03:45:38;;;;;;;12.23;6.17;;;16.70;22.20;;;;;;5096470;28;20230;-81
2023/06/30 03:48:04;;;;;;;8.90;5.90;;;16.70;20.50;;;;;;5092405;28;20195;-82
2023/06/30 03:50:29;;;;;;;9.53;5.70;;;16.70;19.80;;;;;;5095875;28;21350;-81
2023/06/30 03:52:55;;;;;;;11.10;5.90;;;16.80;17.70;;;;;;5092677;28;20196;-81
2023/06/30 03:55:21;;;;;;;10.80;6.00;;;16.80;15.50;;;;;;5096652;28;20211;-82
2023/06/30 03:57:46;;;;;;;8.20;5.40;;;16.90;15.80;;;;;;5094127;28;20182;-81
2023/06/30 04:00:12;;;;;;;10.70;5.20;;;16.90;17.20;;;;;;5092513;28;20210;-80
2023/06/30 04:02:39;;;;;;;8.00;4.60;;;17.00;19.00;;;;;;5089200;28;20612;-81
2023/06/30 04:05:05;;;;;;;9.57;4.73;;;17.10;19.40;;;;;;5086207;28;20177;-82
2023/06/30 04:07:30;;;;;;;10.07;5.27;;;17.10;20.10;;;;;;5081854;28;20215;-84
2023/06/30 04:09:56;;;;;;;8.73;4.73;;;17.10;20.40;;;;;;5078424;28;20175;-84
2023/06/30 04:12:23;;;;;;;10.37;5.90;;;17.10;17.90;;;;;;5078614;28;20656;-82
2023/06/30 04:14:48;;;;;;;11.03;5.50;;;17.10;13.00;;;;;;5078489;28;20243;-84
2023/06/30 04:17:14;;;;;;;8.27;4.83;;;17.10;8.20;;;;;;5081770;28;20546;-84
2023/06/30 04:19:40;;;;;;;12.63;4.77;;;17.20;9.70;;;;;;5097221;28;20223;-82
2023/06/30 04:22:06;;;;;;;11.13;5.30;;;17.20;11.20;;;;;;5095331;28;20168;-81
2023/06/30 04:24:31;;;;;;;12.40;5.33;;;17.20;12.80;;;;;;5098265;28;20183;-82
2023/06/30 04:26:57;;;;;;;8.23;4.83;;;17.30;11.50;;;;;;5093189;28;20199;-82
2023/06/30 04:29:27;;;;;;;8.07;4.83;;;17.30;12.50;;;;;;5080715;28;20263;-81
2023/06/30 04:31:56;;;;;;;10.47;5.30;;;17.30;8.90;;;;;;5079340;28;20686;-83
2023/06/30 04:34:21;;;;;;;7.90;4.70;;;17.40;9.80;;;;;;5074579;28;20180;-83
2023/06/30 04:36:49;;;;;;;8.97;5.00;;;17.50;8.30;;;;;;5073912;28;20181;-84
2023/06/30 04:39:15;;;;;;;8.17;5.27;;;17.60;4.90;;;;;;5073960;28;20248;-83
2023/06/30 04:41:41;;;;;;;10.80;5.00;;;17.60;2.90;;;;;;5075548;28;20171;-83
2023/06/30 04:44:07;;;;;;;9.73;4.80;;;17.60;3.50;;;;;;5074089;28;20549;-84
2023/06/30 04:46:32;;;;;;;12.20;5.33;;;17.70;2.20;;;;;;5057523;28;20176;-83
2023/06/30 04:49:00;;;;;;;13.53;5.40;;;17.80;1.00;;;;;;5074066;28;20189;-83
2023/06/30 04:51:26;;;;;;;8.63;5.30;;;17.90;1.00;;;;;;5074843;28;20168;-82
2023/06/30 04:53:53;;;;;;;11.27;5.43;;;17.80;1.00;;;;;;5073418;28;20198;-83
2023/06/30 04:56:19;;;;;;;10.77;5.37;;;17.30;1.00;;;;;;5073175;28;20199;-83
2023/06/30 04:58:45;;;;;;;10.47;5.07;;;17.10;1.60;;;;;;5078743;28;20165;-83
2023/06/30 05:01:11;;;;;;;10.37;4.90;;;16.90;8.80;;;;;;5079347;28;20186;-84
2023/06/30 05:03:36;;;;;;;12.93;5.00;;;16.80;12.90;;;;;;5079533;28;20625;-82
2023/06/30 05:06:02;;;;;;;10.70;4.53;;;16.80;12.30;;;;;;5077727;28;20269;-82
2023/06/30 05:08:28;;;;;;;10.93;5.50;;;16.80;14.90;;;;;;5078909;28;20172;-82
2023/06/30 05:10:54;;;;;;;13.20;4.87;;;16.80;14.90;;;;;;5077936;28;20211;-82
2023/06/30 05:13:19;;;;;;;9.20;4.50;;;16.80;15.00;;;;;;5078125;28;20176;-84
2023/06/30 05:15:46;;;;;;;9.87;4.87;;;16.90;15.50;;;;;;5078487;28;20195;-82
2023/06/30 05:18:11;;;;;;;10.93;5.50;;;16.90;7.80;;;;;;5077528;28;20180;-83
2023/06/30 05:20:39;;;;;;;10.37;4.57;;;16.70;12.60;;;;;;5076890;28;20212;-82
2023/06/30 05:23:23;;;;;;;10.43;4.77;;;16.70;12.60;;;;;;5075142;28;20557;-83
2023/06/30 05:25:49;;;;;;;9.07;4.63;;;16.70;12.60;;;;;;5077260;28;20190;-83
2023/06/30 05:28:15;;;;;;;9.20;4.67;;;16.70;10.20;;;;;;5078719;28;20172;-83
2023/06/30 05:30:41;;;;;;;11.33;5.23;;;16.60;8.50;;;;;;5081489;28;20651;-84
2023/06/30 05:33:10;;;;;;;9.40;4.93;;;16.70;7.60;;;;;;5080979;28;20172;-84
2023/06/30 05:35:35;;;;;;;8.87;4.60;;;16.70;9.30;;;;;;5078326;28;20189;-83
2023/06/30 05:38:01;;;;;;;11.00;5.00;;;16.90;14.60;;;;;;5079836;28;20186;-84
2023/06/30 05:40:28;;;;;;;10.33;4.80;;;17.00;11.00;;;;;;5081414;28;20584;-83
2023/06/30 05:42:54;;;;;;;9.60;4.40;;;17.20;4.80;;;;;;5080193;28;20275;-82
2023/06/30 05:45:20;;;;;;;7.27;4.50;;;17.40;1.00;;;;;;5081743;28;20180;-82
2023/06/30 05:47:46;;;;;;;7.33;4.43;;;17.50;1.00;;;;;;5080010;28;20169;-83
2023/06/30 05:50:11;;;;;;;8.40;4.30;;;17.50;1.00;;;;;;5080525;28;20542;-83
2023/06/30 05:52:37;;;;;;;9.00;4.10;;;17.50;1.00;;;;;;5091412;28;20732;-82
2023/06/30 05:55:04;;;;;;;9.13;4.23;;;17.40;1.00;;;;;;5099640;28;20288;-81
2023/06/30 05:57:30;;;;;;;6.80;3.60;;;17.20;1.00;;;;;;5100294;28;20177;-82
2023/06/30 05:59:55;;;;;;;7.13;3.40;;;17.20;1.00;;;;;;5101901;28;20208;-83
2023/06/30 06:02:21;;;;;;;9.60;3.40;;;17.10;1.00;;;;;;5100814;28;20222;-83
2023/06/30 06:04:47;;;;;;;9.33;3.70;;;17.10;1.00;;;;;;5100251;28;20186;-82
2023/06/30 06:07:12;;;;;;;7.33;3.40;;;17.10;1.00;;;;;;5100856;28;20175;-82
2023/06/30 06:09:39;;;;;;;6.60;2.83;;;17.20;1.00;;;;;;5099719;28;20202;-82
2023/06/30 06:12:05;;;;;;;5.63;2.33;;;17.20;1.00;;;;;;5098407;28;20177;-82
2023/06/30 06:14:31;;;;;;;7.03;3.00;;;17.30;1.00;;;;;;5112941;28;20236;-84
2023/06/30 06:16:57;;;;;;;6.20;3.07;;;17.40;1.00;;;;;;5118647;28;20197;-82
2023/06/30 06:19:23;;;;;;;6.87;2.93;;;17.40;1.00;;;;;;5111293;28;20208;-85
2023/06/30 06:21:49;;;;;;;7.23;2.83;;;17.60;1.00;;;;;;5110502;28;20199;-82
2023/06/30 06:24:18;;;;;;;5.73;2.50;;;17.80;1.00;;;;;;5101761;28;20234;-83
2023/06/30 06:26:44;;;;;;;7.00;2.70;;;17.70;1.00;;;;;;5099035;28;20171;-83
2023/06/30 06:29:14;;;;;;;7.87;2.70;;;17.80;1.00;;;;;;5098958;28;20192;-82
2023/06/30 06:31:40;;;;;;;9.23;2.40;;;18.00;1.00;;;;;;5102007;28;20174;-81
2023/06/30 06:34:05;;;;;;;6.00;2.70;;;17.90;1.00;;;;;;5099130;28;20196;-84
2023/06/30 06:36:31;;;;;;;6.23;2.40;;;17.90;1.00;;;;;;5102244;28;20182;-81
2023/06/30 06:38:56;;;;;;;5.17;2.63;;;17.90;1.00;;;;;;5120062;28;20164;-82
2023/06/30 06:41:23;;;;;;;5.00;2.13;;;17.90;1.00;;;;;;5119351;28;20252;-83
2023/06/30 06:43:49;;;;;;;7.23;2.80;;;17.90;1.00;;;;;;5110913;28;20175;-82
2023/06/30 06:46:18;;;;;;;5.87;2.47;;;18.10;1.00;;;;;;5108483;28;20196;-84
2023/06/30 06:48:46;;;;;;;5.87;2.63;;;18.40;1.00;;;;;;5097772;28;20545;-84
2023/06/30 06:51:20;;;;;;;6.37;2.60;;;18.40;1.00;;;;;;5097687;28;20176;-81
2023/06/30 06:53:46;;;;;;;5.87;2.20;;;18.50;1.00;;;;;;5098026;28;20210;-84
2023/06/30 06:56:12;;;;;;;5.03;2.30;;;18.60;1.00;;;;;;5103446;28;20258;-84
2023/06/30 06:58:38;;;;;;;3.30;1.67;;;18.60;1.00;;;;;;5097770;28;20175;-84
2023/06/30 07:01:04;;;;;;;6.37;2.00;;;18.70;1.00;;;;;;5096833;28;20585;-81
2023/06/30 07:03:30;;;;;;;6.80;2.60;;;18.70;1.00;;;;;;5097779;28;20177;-82
2023/06/30 07:05:57;;;;;;;6.53;2.40;;;18.70;1.00;;;;;;5097328;28;20172;-82
2023/06/30 07:08:23;;;;;;;7.50;2.30;;;18.70;1.00;;;;;;5098649;28;20179;-83
2023/06/30 07:10:50;;;;;;;4.90;2.47;;;18.70;1.00;;;;;;5098581;28;20174;-82
2023/06/30 07:13:17;;;;;;;5.37;2.40;;;18.80;1.00;;;;;;5098677;28;20257;-82
2023/06/30 07:15:45;;;;;;;7.13;2.43;;;19.00;1.00;;;;;;5097150;28;20536;-83
2023/06/30 07:18:11;;;;;;;5.50;2.50;;;19.10;1.00;;;;;;5099410;28;20178;-82
2023/06/30 07:20:36;;;;;;;6.50;2.40;;;19.00;1.00;;;;;;5099482;28;20205;-82
2023/06/30 07:23:02;;;;;;;7.20;2.33;;;19.00;1.00;;;;;;5100123;28;20202;-82
2023/06/30 07:25:28;;;;;;;6.00;2.40;;;19.10;1.00;;;;;;5101382;28;20194;-85
2023/06/30 07:27:56;;;;;;;5.40;2.20;;;19.30;1.00;;;;;;5099952;28;20179;-83
2023/06/30 07:30:24;;;;;;;7.53;2.10;;;19.30;1.00;;;;;;5100561;28;20175;-83
2023/06/30 07:32:50;;;;;;;5.27;2.30;;;19.40;1.00;;;;;;5103251;28;20677;-83
2023/06/30 07:35:17;;;;;;;6.67;2.27;;;19.40;1.00;;;;;;5098305;28;20171;-82
2023/06/30 07:37:48;;;;;;;6.43;2.17;;;19.50;1.00;;;;;;5099772;28;20188;-83
2023/06/30 07:40:14;;;;;;;6.07;1.67;;;19.60;1.00;;;;;;5100267;28;20237;-84
2023/06/30 07:42:40;;;;;;;6.00;1.97;;;19.80;1.00;;;;;;5100018;28;20521;-83
2023/06/30 07:45:17;;;;;;;6.80;2.00;;;19.90;1.00;;;;;;5097100;28;20167;-83
2023/06/30 07:47:46;;;;;;;4.10;2.07;;;20.10;1.00;;;;;;5099650;28;20155;-82
2023/06/30 07:50:13;;;;;;;6.23;2.03;;;20.00;1.00;;;;;;5101043;28;20173;-83
2023/06/30 07:52:42;;;;;;;7.63;2.00;;;20.10;1.00;;;;;;5101383;28;20290;-84
2023/06/30 07:55:08;;;;;;;5.63;2.10;;;20.30;1.00;;;;;;5103469;28;20160;-84
2023/06/30 07:57:35;;;;;;;5.43;1.80;;;20.40;1.00;;;;;;5108373;28;20172;-83
2023/06/30 08:00:01;;;;;;;4.93;1.90;;;20.40;1.00;;;;;;5108002;28;20202;-82
2023/06/30 08:02:29;;;;;;;4.23;1.80;;;20.50;1.00;;;;;;5110932;28;20170;-82
2023/06/30 08:04:55;;;;;;;5.53;1.73;;;20.60;99.90;;;;;;5107365;28;20229;-82
2023/06/30 08:07:21;;;;;;;5.30;1.80;;;20.60;99.90;;;;;;5096116;28;20632;-82
2023/06/30 08:09:48;;;;;;;4.80;1.87;;;20.70;99.90;;;;;;5097573;28;20189;-83
2023/06/30 08:12:15;;;;;;;5.07;1.97;;;20.70;99.90;;;;;;5098802;28;20170;-81
2023/06/30 08:14:40;;;;;;;4.13;1.70;;;20.80;99.90;;;;;;5101111;28;20637;-82
2023/06/30 08:17:07;;;;;;;4.37;1.83;;;20.80;99.90;;;;;;5101841;28;20158;-83
2023/06/30 08:19:34;;;;;;;5.30;2.07;;;21.00;99.90;;;;;;5100664;28;20208;-83
2023/06/30 08:22:01;;;;;;;5.20;2.30;;;21.10;99.90;;;;;;5099082;28;20167;-82
2023/06/30 08:24:28;;;;;;;5.50;1.90;;;21.10;99.90;;;;;;5097821;28;20214;-82
2023/06/30 08:26:55;;;;;;;4.90;1.73;;;21.20;99.90;;;;;;5095782;28;20186;-83
2023/06/30 08:29:20;;;;;;;5.20;1.50;;;21.30;99.90;;;;;;5094839;28;20518;-82
2023/06/30 08:31:46;;;;;;;3.40;1.40;;;21.30;99.90;;;;;;5093528;28;20186;-82
2023/06/30 08:34:12;;;;;;;6.73;1.93;;;21.40;99.90;;;;;;5094804;28;20515;-84
2023/06/30 08:36:38;;;;;;;4.60;1.40;;;21.50;76.50;;;;;;5093958;28;20185;-84
2023/06/30 08:39:04;;;;;;;5.40;1.83;;;21.60;1.00;;;;;;5096428;28;20175;-82
2023/06/30 08:41:30;;;;;;;3.93;1.43;;;21.40;99.90;;;;;;5096589;28;20536;-85
2023/06/30 08:43:59;;;;;;;2.43;1.37;;;21.40;1.00;;;;;;5095382;28;20172;-82
2023/06/30 08:46:26;;;;;;;4.50;1.97;;;21.40;26.50;;;;;;5096938;28;20175;-83
2023/06/30 08:48:52;;;;;;;8.50;1.80;;;21.50;99.90;;;;;;5097802;28;20175;-83
2023/06/30 08:51:19;;;;;;;5.27;1.70;;;21.80;99.90;;;;;;5098410;28;20254;-82
2023/06/30 08:53:47;;;;;;;6.23;2.10;;;21.90;1.00;;;;;;5096129;28;20443;-83
2023/06/30 08:56:17;;;;;;;3.83;1.60;;;22.10;99.90;;;;;;5096898;28;20181;-83
2023/06/30 08:58:44;;;;;;;4.93;2.00;;;22.20;99.90;;;;;;5098379;28;20180;-82
2023/06/30 09:01:12;;;;;;;5.47;1.80;;;22.30;99.90;;;;;;5108556;28;20211;-81
2023/06/30 09:03:38;;;;;;;4.73;1.70;;;22.30;1.00;;;;;;5112452;28;20219;-83
2023/06/30 09:06:04;;;;;;;7.90;1.93;;;22.50;1.00;;;;;;5113949;28;20171;-84
2023/06/30 09:08:47;;;;;;;3.50;1.57;;;22.40;99.90;;;;;;5116131;28;20247;-82
2023/06/30 09:11:16;;;;;;;3.47;1.20;;;22.50;1.00;;;;;;5115710;28;20152;-84
2023/06/30 09:13:44;;;;;;;3.60;1.40;;;22.50;1.00;;;;;;5117719;28;20167;-83
2023/06/30 09:16:12;;;;;;;5.27;1.37;;;22.50;1.00;;;;;;5117842;28;20175;-82
2023/06/30 09:18:38;;;;;;;3.33;1.57;;;22.60;1.00;;;;;;5115969;28;20176;-80
2023/06/30 09:21:07;;;;;;;3.83;1.40;;;22.50;1.00;;;;;;5116513;28;20233;-83
2023/06/30 09:23:33;;;;;;;5.10;1.50;;;22.50;71.10;;;;;;5116380;28;20171;-82
2023/06/30 09:26:00;;;;;;;2.27;1.40;;;22.60;38.20;;;;;;5114752;28;20225;-83
2023/06/30 09:28:35;;;;;;;4.20;1.73;;;22.70;99.90;;;;;;5115561;28;20156;-83
2023/06/30 09:31:02;;;;;;;3.17;1.83;;;22.80;1.00;;;;;;5119149;28;20174;-82
2023/06/30 09:33:28;;;;;;;3.23;1.30;;;22.70;1.00;;;;;;5119792;28;20152;-82
2023/06/30 09:35:56;;;;;;;4.40;1.40;;;22.80;99.90;;;;;;5120275;28;20164;-84
2023/06/30 09:38:22;;;;;;;5.13;1.40;;;22.70;1.00;;;;;;5120118;28;20193;-84
2023/06/30 09:40:50;;;;;;;7.90;1.70;;;22.40;99.90;;;;;;5120065;28;20254;-83
2023/06/30 09:43:21;;;;;;;6.30;1.53;;;22.40;99.90;;;;;;5119981;28;20226;-82
2023/06/30 09:45:54;;;;;;;6.17;1.90;;;22.00;1.00;;;;;;5113740;28;20171;-83
2023/06/30 09:48:35;;;;;;;3.50;1.83;;;21.90;1.00;;;;;;5095946;28;20189;-82
2023/06/30 09:51:02;;;;;;;3.97;1.60;;;21.90;99.90;;;;;;5097291;28;20598;-83
2023/06/30 09:53:40;;;;;;;3.33;1.70;;;22.00;1.00;;;;;;5087078;28;20203;-85
2023/06/30 09:56:12;;;;;;;2.63;1.47;;;22.10;99.90;;;;;;5085065;28;20178;-84
2023/06/30 09:58:39;;;;;;;3.33;1.70;;;21.90;26.00;;;;;;5095014;28;20191;-83
2023/06/30 10:01:10;;;;;;;5.00;1.77;;;22.00;99.90;;;;;;5099597;28;20194;-84
2023/06/30 10:03:50;;;;;;;2.90;1.10;;;22.30;1.00;;;;;;5099558;28;20155;-84
2023/06/30 10:06:18;;;;;;;3.00;1.10;;;22.20;1.00;;;;;;5099541;28;20174;-81
2023/06/30 10:08:47;;;;;;;3.97;1.30;;;21.90;1.00;;;;;;5099349;28;20147;-83
2023/06/30 10:11:50;;;;;;;3.53;1.80;;;21.70;99.90;;;;;;5106099;28;20221;-82
2023/06/30 10:14:18;;;;;;;6.60;1.80;;;21.90;1.00;;;;;;5098665;28;20181;-83
2023/06/30 10:16:47;;;;;;;6.17;1.70;;;21.90;99.90;;;;;;5097161;28;20174;-84
2023/06/30 10:19:19;;;;;;;3.83;1.70;;;21.90;99.90;;;;;;5107353;28;20165;-83
2023/06/30 10:21:47;;;;;;;4.03;1.83;;;21.90;1.00;;;;;;5117774;28;20172;-83
2023/06/30 10:24:13;;;;;;;5.10;1.30;;;21.90;1.00;;;;;;5117974;28;20149;-83
2023/06/30 10:26:39;;;;;;;4.63;1.90;;;21.90;13.30;;;;;;5116710;28;20240;-84
2023/06/30 10:29:06;;;;;;;6.03;2.27;;;21.80;1.00;;;;;;5097329;28;20185;-85
2023/06/30 10:31:33;;;;;;;3.77;2.00;;;21.70;59.90;;;;;;5115421;28;20184;-85
2023/06/30 10:34:01;;;;;;;5.67;1.87;;;21.80;99.90;;;;;;5109580;28;20162;-83
2023/06/30 10:36:28;;;;;;;4.20;1.87;;;21.90;99.90;;;;;;5114469;28;20177;-81
2023/06/30 10:38:54;;;;;;;4.10;1.70;;;22.00;1.00;;;;;;5117553;28;20173;-84
2023/06/30 10:41:22;;;;;;;3.77;1.60;;;22.10;1.00;;;;;;5118476;28;20240;-83
2023/06/30 10:44:09;;;;;;;3.00;1.63;;;22.10;99.90;;;;;;5118112;28;20167;-84
2023/06/30 10:46:46;;;;;;;3.60;1.70;;;22.20;1.00;;;;;;5117202;28;20173;-84
2023/06/30 10:49:31;;;;;;;2.63;1.53;;;22.40;99.90;;;;;;5116265;28;20435;-83
2023/06/30 10:51:58;;;;;;;3.00;1.60;;;22.50;1.00;;;;;;5115196;28;20196;-84
2023/06/30 10:54:29;;;;;;;4.33;2.67;;;22.50;25.80;;;;;;5116894;28;20181;-83
2023/06/30 10:57:05;;;;;;;3.70;1.90;;;22.50;1.00;;;;;;5115341;28;20179;-82
2023/06/30 10:59:42;;;;;;;3.80;1.63;;;22.20;99.90;;;;;;5108811;28;20193;-84
2023/06/30 11:02:17;;;;;;;3.73;1.47;;;22.10;1.00;;;;;;5094611;28;20595;-85
2023/06/30 11:04:46;;;;;;;2.77;1.40;;;22.10;1.00;;;;;;5095927;28;20182;-85
2023/06/30 11:07:29;;;;;;;3.63;1.60;;;22.20;1.00;;;;;;5094776;28;20176;-83
2023/06/30 11:09:56;;;;;;;5.53;1.53;;;22.20;99.90;;;;;;5096653;28;20532;-84
2023/06/30 11:12:49;;;;;;;5.67;1.77;;;22.30;64.00;;;;;;5095847;28;20169;-89
2023/06/30 11:15:44;;;;;;;3.00;1.87;;;22.40;1.00;;;;;;5103033;28;20218;-84
2023/06/30 11:18:21;;;;;;;3.87;1.57;;;21.90;99.90;;;;;;5095646;28;20193;-85
2023/06/30 11:21:03;;;;;;;4.57;1.60;;;21.90;99.90;;;;;;5113360;28;20201;-88
2023/06/30 11:23:39;;;;;;;4.40;1.97;;;22.20;1.00;;;;;;5110449;28;20215;-85
2023/06/30 11:26:16;;;;;;;5.97;2.00;;;22.40;99.90;;;;;;5116014;28;20314;-85
2023/06/30 11:28:43;;;;;;;5.77;1.90;;;22.40;1.00;;;;;;5114158;28;20235;-85
2023/06/30 11:31:12;;;;;;;4.23;1.63;;;22.50;1.00;;;;;;5091827;28;20213;-86
2023/06/30 11:33:42;;;;;;;4.30;1.60;;;22.60;1.00;;;;;;5112655;28;20166;-86
2023/06/30 11:36:16;;;;;;;2.93;1.60;;;22.60;99.90;;;;;;5110901;28;20216;-86
2023/06/30 11:38:46;;;;;;;4.90;1.83;;;22.60;95.30;;;;;;5100920;28;20194;-88
2023/06/30 11:41:18;;;;;;;5.73;1.83;;;22.70;1.00;;;;;;5095642;28;20194;-85
2023/06/30 11:43:55;;;;;;;3.43;1.80;;;22.70;1.00;;;;;;5089628;28;20171;-85
2023/06/30 11:46:21;;;;;;;4.97;2.10;;;22.30;1.00;;;;;;5081222;28;20257;-85
2023/06/30 11:48:48;;;;;;;4.03;2.43;;;22.10;1.00;;;;;;5095952;28;20174;-85
2023/06/30 11:51:14;;;;;;;3.47;2.07;;;21.90;1.00;;;;;;5097021;28;20266;-85
2023/06/30 11:53:47;;;;;;;3.43;2.17;;;21.60;99.90;;;;;;5097761;28;20226;-85
2023/06/30 11:56:12;;;;;;;4.63;2.10;;;21.50;1.00;;;;;;5082280;28;20161;-86
2023/06/30 11:58:52;;;;;;;5.60;2.20;;;21.60;1.00;;;;;;5078737;28;20182;-83
2023/06/30 12:01:21;;;;;;;5.63;2.20;;;21.60;1.00;;;;;;5093907;28;20312;-86
2023/06/30 12:03:52;;;;;;;4.23;2.20;;;21.70;1.00;;;;;;5081499;28;20258;-84
2023/06/30 12:06:18;;;;;;;5.93;2.60;;;21.80;1.00;;;;;;5079428;28;20195;-85
2023/06/30 12:08:45;;;;;;;7.63;2.87;;;21.80;1.00;;;;;;5075639;28;20182;-85
2023/06/30 12:11:11;;;;;;;7.03;2.20;;;22.00;1.00;;;;;;5073702;28;20669;-86
2023/06/30 12:13:41;;;;;;;5.13;2.30;;;22.20;1.00;;;;;;5075519;28;20172;-85
2023/06/30 12:16:07;;;;;;;4.73;2.10;;;22.70;99.90;;;;;;5074568;28;20173;-86
2023/06/30 12:18:37;;;;;;;4.17;2.17;;;22.80;99.90;;;;;;5076782;28;20175;-87
2023/06/30 12:21:13;;;;;;;3.60;2.40;;;23.00;1.00;;;;;;5075180;28;20289;-86
2023/06/30 12:23:43;;;;;;;4.70;2.20;;;23.20;99.90;;;;;;5080733;28;20207;-85
2023/06/30 12:26:10;;;;;;;4.13;2.20;;;23.20;1.00;;;;;;5080253;28;20224;-86
2023/06/30 12:28:37;;;;;;;6.87;3.10;;;23.20;1.00;;;;;;5082659;28;20241;-84
2023/06/30 12:31:02;;;;;;;4.83;2.77;;;23.10;99.90;;;;;;5081708;28;20628;-86
2023/06/30 12:33:30;;;;;;;5.23;2.30;;;23.00;1.00;;;;;;5075300;28;20280;-85
2023/06/30 12:35:57;;;;;;;4.43;2.70;;;23.10;1.00;;;;;;5076883;28;20180;-86
2023/06/30 12:38:24;;;;;;;4.17;2.60;;;23.20;1.00;;;;;;5074790;28;20206;-86
2023/06/30 12:40:50;;;;;;;4.13;2.20;;;23.30;1.00;;;;;;5076262;28;20216;-85
2023/06/30 12:43:16;;;;;;;6.23;2.70;;;23.40;1.00;;;;;;5076022;28;20176;-84
2023/06/30 12:45:43;;;;;;;4.73;2.73;;;23.50;1.00;;;;;;5076849;28;20176;-85
2023/06/30 12:48:09;;;;;;;6.57;2.43;;;23.60;78.20;;;;;;5075623;28;20187;-85
2023/06/30 12:50:35;;;;;;;7.10;3.20;;;23.50;99.90;;;;;;5079371;28;20176;-85
2023/06/30 12:53:01;;;;;;;9.60;3.27;;;23.70;1.00;;;;;;5084453;28;20195;-86
2023/06/30 12:55:29;;;;;;;5.80;2.90;;;23.80;87.00;;;;;;5083855;28;20188;-84